Terminal Aerodrome Forecast
Issued by NWS

Home | Current Version | Previous Version | Text Only | Print | Product List | Glossary On
Versions: 1 2 3 4 5 6 7 8 9 10 11 12 13 14 15 16 17 18 19 20 21 22 23
000
FTUS44 KLZK 271720
TAFBPK
TAF
KBPK 271720Z 2718/2818 VRB06KT P6SM SCT100 BKN250
     FM280000 14008KT P6SM SCT100 BKN250
     FM281200 16015G25KT P6SM BKN015 OVC025 PROB30 2812/2818 SHRA=

USA.gov is the U.S. government's official web portal to all federal, state and local government web resources and services.